createdAt,value
2019-06-07T00:00:38.862Z,3.80
2019-06-07T00:03:01.147Z,4.20
2019-06-07T00:05:31.525Z,4.05
2019-06-07T00:08:07.594Z,4.10
2019-06-07T00:10:36.893Z,3.40
2019-06-07T00:13:06.907Z,3.97
2019-06-07T00:15:37.397Z,3.72
2019-06-07T00:18:11.198Z,3.70
2019-06-07T00:20:39.816Z,3.93
2019-06-07T00:23:12.203Z,4.27
2019-06-07T00:25:42.153Z,3.73
2019-06-07T00:28:13.283Z,4.53
2019-06-07T00:30:51.786Z,5.50
2019-06-07T00:33:20.553Z,3.80
2019-06-07T00:35:48.251Z,3.90
2019-06-07T00:38:20.415Z,4.73
2019-06-07T00:40:49.919Z,4.97
2019-06-07T00:43:26.199Z,4.27
2019-06-07T00:45:52.300Z,4.50
2019-06-07T00:48:31.445Z,4.77
2019-06-07T00:50:54.601Z,4.27
2019-06-07T00:53:31.637Z,4.12
2019-06-07T00:55:57.152Z,5.17
2019-06-07T00:58:29.400Z,4.60
2019-06-07T01:00:59.492Z,4.53
2019-06-07T01:03:29.219Z,4.40
2019-06-07T01:05:59.468Z,4.37
2019-06-07T01:08:30.208Z,4.83
2019-06-07T01:11:00.645Z,4.70
2019-06-07T01:13:31.001Z,4.73
2019-06-07T01:16:01.441Z,4.00
2019-06-07T01:18:39.065Z,4.50
2019-06-07T01:21:03.008Z,4.17
2019-06-07T01:27:02.004Z,4.37
2019-06-07T01:29:31.635Z,3.90
2019-06-07T01:32:01.861Z,4.37
2019-06-07T01:34:32.218Z,4.10
2019-06-07T01:37:02.527Z,4.17
2019-06-07T01:39:33.006Z,4.30
2019-06-07T01:42:03.336Z,4.10
2019-06-07T01:44:33.754Z,4.03
2019-06-07T01:47:04.045Z,3.77
2019-06-07T01:49:34.398Z,3.80
2019-06-07T01:52:04.733Z,4.40
2019-06-07T01:54:56.720Z,4.07
2019-06-07T01:57:07.065Z,3.70
2019-06-07T01:59:37.402Z,3.83
2019-06-07T02:02:07.760Z,3.63
2019-06-07T02:04:38.089Z,3.73
2019-06-07T02:07:08.450Z,3.80
2019-06-07T02:09:38.790Z,4.03
2019-06-07T02:12:25.170Z,3.27
2019-06-07T02:14:41.134Z,4.00
2019-06-07T02:17:11.508Z,3.83
2019-06-07T02:19:41.850Z,3.60
2019-06-07T02:22:12.185Z,3.40
2019-06-07T02:24:43.731Z,3.90
2019-06-07T02:27:14.287Z,3.57
2019-06-07T02:29:43.975Z,3.53
2019-06-07T02:32:14.225Z,3.23
2019-06-07T02:34:44.567Z,4.20
2019-06-07T02:37:14.246Z,3.80
2019-06-07T02:39:44.557Z,3.90
2019-06-07T02:42:14.311Z,4.33
2019-06-07T02:44:44.558Z,4.43
2019-06-07T02:47:14.258Z,3.60
2019-06-07T02:49:44.770Z,4.13
2019-06-07T02:52:15.154Z,4.07
2019-06-07T02:54:45.488Z,4.07
2019-06-07T02:57:15.843Z,4.50
2019-06-07T03:00:06.719Z,4.63
2019-06-07T03:02:18.307Z,4.00
2019-06-07T03:04:49.083Z,4.03
2019-06-07T03:07:20.243Z,3.63
2019-06-07T03:09:51.374Z,3.53
2019-06-07T03:12:22.835Z,3.60
2019-06-07T03:14:53.150Z,3.30
2019-06-07T03:17:44.833Z,3.87
2019-06-07T03:20:15.662Z,3.03
2019-06-07T03:22:46.108Z,2.90
2019-06-07T03:25:16.442Z,3.20
2019-06-07T03:27:50.246Z,3.07
2019-06-07T03:30:38.663Z,2.83
2019-06-07T03:32:52.390Z,2.97
2019-06-07T03:35:22.779Z,3.10
2019-06-07T03:37:53.119Z,3.27
2019-06-07T03:40:22.817Z,3.17
2019-06-07T03:42:53.081Z,3.33
2019-06-07T03:45:22.781Z,3.17
2019-06-07T03:47:53.046Z,3.43
2019-06-07T03:50:23.359Z,3.33
2019-06-07T03:52:53.047Z,3.10
2019-06-07T03:55:22.625Z,3.37
2019-06-07T04:00:24.874Z,3.50
2019-06-07T04:02:54.576Z,3.73
2019-06-07T04:05:24.832Z,3.83
2019-06-07T04:07:54.491Z,3.30
2019-06-07T04:10:44.686Z,3.53
2019-06-07T04:12:56.051Z,3.70
2019-06-07T04:15:26.285Z,3.70
2019-06-07T04:18:01.848Z,3.30
2019-06-07T04:20:29.358Z,3.47
2019-06-07T04:23:00.611Z,3.73
2019-06-07T04:25:33.919Z,3.23
2019-06-07T04:28:02.263Z,3.77
2019-06-07T04:30:39.484Z,3.67
2019-06-07T04:33:11.157Z,3.63
2019-06-07T04:35:42.917Z,3.33
2019-06-07T04:38:14.707Z,3.63
2019-06-07T04:40:44.541Z,3.90
2019-06-07T04:43:14.808Z,3.60
2019-06-07T04:45:50.778Z,3.73
2019-06-07T04:48:16.350Z,4.10
2019-06-07T04:50:47.699Z,3.73
2019-06-07T04:53:18.057Z,3.90
2019-06-07T04:55:48.378Z,4.03
2019-06-07T04:58:18.702Z,4.23
2019-06-07T05:00:55.575Z,4.50
2019-06-07T05:03:21.135Z,4.13
2019-06-07T05:05:51.473Z,4.50
2019-06-07T05:08:28.237Z,4.60
2019-06-07T05:10:53.805Z,4.73
2019-06-07T05:13:23.574Z,4.47
2019-06-07T05:15:53.842Z,5.13
2019-06-07T05:18:23.561Z,4.50
2019-06-07T05:20:53.820Z,4.67
2019-06-07T05:25:56.307Z,4.37
2019-06-07T05:28:26.003Z,4.83
2019-06-07T05:31:05.604Z,4.40
2019-06-07T05:33:27.570Z,4.03
2019-06-07T05:35:57.831Z,4.45
2019-06-07T05:38:27.531Z,4.67
2019-06-07T05:40:57.823Z,5.43
2019-06-07T05:43:28.423Z,5.30
2019-06-07T05:45:58.805Z,4.70
2019-06-07T05:48:28.527Z,4.63
2019-06-07T05:50:58.868Z,4.43
2019-06-07T05:53:28.559Z,4.60
2019-06-07T05:55:58.839Z,4.50
2019-06-07T05:58:28.574Z,4.45
2019-06-07T06:01:41.103Z,4.80
2019-06-07T06:03:30.939Z,4.67
2019-06-07T06:06:01.312Z,4.93
2019-06-07T06:08:31.804Z,5.00
2019-06-07T06:11:02.176Z,4.20
2019-06-07T06:13:32.527Z,4.80
2019-06-07T06:16:02.937Z,4.43
2019-06-07T06:18:33.281Z,3.80
2019-06-07T06:21:18.187Z,4.70
2019-06-07T06:23:39.035Z,4.65
2019-06-07T06:26:07.638Z,5.03
2019-06-07T06:28:38.353Z,5.00
2019-06-07T06:31:08.703Z,4.50
2019-06-07T06:33:39.626Z,4.47
2019-06-07T06:36:09.911Z,4.63
2019-06-07T06:38:41.389Z,4.40
2019-06-07T06:41:15.994Z,5.00
2019-06-07T06:43:46.733Z,4.50
2019-06-07T06:46:31.820Z,5.13
2019-06-07T06:48:51.728Z,4.80
2019-06-07T06:51:19.142Z,4.67
2019-06-07T06:53:51.324Z,4.27
2019-06-07T06:56:20.739Z,4.77
2019-06-07T06:59:32.557Z,4.47
2019-06-07T07:01:23.168Z,4.43
2019-06-07T07:04:10.471Z,4.67
2019-06-07T07:06:27.029Z,4.45
2019-06-07T07:08:57.351Z,4.83
2019-06-07T07:11:26.954Z,4.37
2019-06-07T07:13:57.288Z,4.30
2019-06-07T07:16:26.990Z,4.60
2019-06-07T07:18:56.575Z,4.93
2019-06-07T07:21:26.888Z,4.30
2019-06-07T07:24:20.221Z,4.00
2019-06-07T07:26:28.644Z,4.03
2019-06-07T07:28:58.223Z,4.77
2019-06-07T07:31:27.778Z,3.93
2019-06-07T07:34:29.333Z,4.00
2019-06-07T07:36:39.335Z,4.40
2019-06-07T07:39:04.995Z,4.80
2019-06-07T07:41:32.531Z,4.67
2019-06-07T07:44:07.147Z,4.50
2019-06-07T07:46:35.515Z,4.10
2019-06-07T07:49:05.170Z,4.43
2019-06-07T07:51:35.568Z,3.77
2019-06-07T07:54:10.891Z,3.93
2019-06-07T07:56:37.224Z,3.80
2019-06-07T07:59:08.138Z,4.10
2019-06-07T08:01:37.881Z,4.80
2019-06-07T08:04:08.189Z,4.13
2019-06-07T08:06:37.835Z,4.40
2019-06-07T08:09:07.914Z,4.70
2019-06-07T08:11:37.601Z,4.70
2019-06-07T08:14:07.246Z,4.17
2019-06-07T08:16:37.597Z,4.20
2019-06-07T08:19:07.404Z,4.60
2019-06-07T08:21:38.683Z,4.33
2019-06-07T08:24:08.554Z,4.07
2019-06-07T08:26:38.152Z,4.73
2019-06-07T08:29:07.770Z,4.50
2019-06-07T08:31:37.359Z,4.00
2019-06-07T08:34:07.086Z,4.80
2019-06-07T08:36:42.453Z,4.17
2019-06-07T08:39:08.593Z,4.73
2019-06-07T08:41:53.485Z,4.47
2019-06-07T08:44:23.217Z,3.87
2019-06-07T08:46:42.162Z,4.70
2019-06-07T08:49:11.854Z,3.80
2019-06-07T08:51:42.205Z,4.57
2019-06-07T08:54:22.521Z,4.87
2019-06-07T08:56:43.898Z,5.00
2019-06-07T08:59:14.137Z,4.60
2019-06-07T09:01:44.484Z,5.10
2019-06-07T09:04:14.861Z,5.47
2019-06-07T09:09:16.404Z,5.03
2019-06-07T09:11:46.749Z,5.15
2019-06-07T09:14:17.229Z,4.93
2019-06-07T09:16:46.930Z,4.90
2019-06-07T09:19:17.216Z,5.13
2019-06-07T09:21:47.582Z,5.50
2019-06-07T09:24:18.010Z,5.87
2019-06-07T09:26:47.746Z,5.57
2019-06-07T09:29:19.208Z,6.23
2019-06-07T09:31:53.208Z,5.93
2019-06-07T09:34:20.772Z,6.33
2019-06-07T09:36:51.648Z,6.27
2019-06-07T09:39:21.312Z,5.40
2019-06-07T09:41:51.674Z,6.20
2019-06-07T09:44:26.178Z,6.37
2019-06-07T09:47:14.116Z,6.23
2019-06-07T09:49:32.047Z,6.27
2019-06-07T09:51:57.920Z,5.63
2019-06-07T09:55:03.091Z,5.83
2019-06-07T09:57:04.573Z,6.30
2019-06-07T09:59:32.479Z,6.50
2019-06-07T10:02:05.140Z,5.93
2019-06-07T10:04:34.776Z,6.47
2019-06-07T10:07:26.936Z,7.03
2019-06-07T10:12:12.149Z,6.27
2019-06-07T10:14:45.123Z,6.53
2019-06-07T10:17:13.929Z,6.70
2019-06-07T10:19:44.157Z,6.53
2019-06-07T10:22:14.530Z,6.43
2019-06-07T10:24:44.858Z,7.33
2019-06-07T10:27:15.261Z,6.50
2019-06-07T10:29:45.657Z,6.27
2019-06-07T10:32:16.257Z,6.73
2019-06-07T10:34:46.653Z,6.83
2019-06-07T10:37:17.064Z,6.93
2019-06-07T10:39:49.186Z,6.37
2019-06-07T10:42:20.156Z,6.80
2019-06-07T10:44:49.862Z,5.57
2019-06-07T10:47:19.464Z,5.93
2019-06-07T10:49:49.760Z,5.53
2019-06-07T10:52:20.108Z,5.93
2019-06-07T10:54:49.815Z,5.73
2019-06-07T10:57:20.090Z,5.53
2019-06-07T10:59:49.816Z,4.93
2019-06-07T11:02:20.130Z,6.13
2019-06-07T11:04:49.825Z,5.22
2019-06-07T11:07:20.071Z,4.77
2019-06-07T11:10:05.733Z,4.50
2019-06-07T11:12:22.464Z,5.43
2019-06-07T11:14:52.200Z,4.33
2019-06-07T11:17:21.816Z,4.83
2019-06-07T11:19:51.472Z,4.40
2019-06-07T11:22:21.729Z,4.40
2019-06-07T11:24:51.445Z,5.13
2019-06-07T11:27:22.254Z,4.63
2019-06-07T11:29:51.935Z,4.50
2019-06-07T11:32:22.242Z,4.30
2019-06-07T11:34:52.575Z,4.50
2019-06-07T11:37:22.293Z,4.77
2019-06-07T11:39:51.918Z,3.20
2019-06-07T11:42:22.188Z,3.57
2019-06-07T11:44:56.892Z,3.70
2019-06-07T11:47:23.128Z,3.90
2019-06-07T11:49:52.773Z,3.87
2019-06-07T11:52:23.056Z,3.40
2019-06-07T11:54:52.826Z,3.53
2019-06-07T11:57:24.012Z,3.83
2019-06-07T11:59:54.125Z,3.43
2019-06-07T12:02:23.778Z,3.60
2019-06-07T12:04:53.382Z,3.53
2019-06-07T12:07:23.687Z,3.17
2019-06-07T12:09:56.769Z,3.63
2019-06-07T12:12:26.054Z,3.93
2019-06-07T12:14:56.417Z,3.97
2019-06-07T12:17:26.164Z,3.30
2019-06-07T12:19:56.500Z,2.90
2019-06-07T12:22:27.041Z,2.70
2019-06-07T12:24:59.500Z,2.57
2019-06-07T12:27:31.559Z,2.40
2019-06-07T12:30:09.867Z,2.27
2019-06-07T12:32:35.040Z,2.10
2019-06-07T12:35:06.212Z,2.40
2019-06-07T12:37:43.735Z,2.23
2019-06-07T12:40:10.047Z,2.07
2019-06-07T12:42:39.792Z,2.33
2019-06-07T12:45:10.484Z,2.37
2019-06-07T12:47:40.865Z,2.63
2019-06-07T12:50:13.370Z,2.70
2019-06-07T12:52:43.889Z,2.37
2019-06-07T12:55:15.883Z,2.43
2019-06-07T12:57:45.729Z,2.57
2019-06-07T13:00:16.154Z,2.13
2019-06-07T13:02:46.959Z,1.80
2019-06-07T13:05:17.902Z,1.90
2019-06-07T13:07:49.990Z,2.10
2019-06-07T13:10:22.078Z,2.37
2019-06-07T13:12:52.525Z,1.90
2019-06-07T13:15:26.084Z,1.73
2019-06-07T13:17:56.145Z,2.33
2019-06-07T13:20:26.479Z,2.00
2019-06-07T13:22:57.270Z,1.93
2019-06-07T13:25:45.226Z,2.00
2019-06-07T13:27:59.224Z,1.87
2019-06-07T13:30:29.645Z,2.07
2019-06-07T13:32:59.406Z,1.70
2019-06-07T13:35:29.806Z,2.10
2019-06-07T13:38:00.146Z,1.73
2019-06-07T13:40:30.633Z,1.67
2019-06-07T13:43:00.364Z,1.63
2019-06-07T13:45:30.826Z,1.50
2019-06-07T13:48:01.295Z,1.43
2019-06-07T13:50:31.689Z,1.30
2019-06-07T13:53:02.055Z,1.70
2019-06-07T13:55:32.473Z,1.83
2019-06-07T13:58:02.903Z,1.80
2019-06-07T14:00:33.386Z,1.53
2019-06-07T14:03:03.116Z,1.90
2019-06-07T14:05:33.511Z,1.60
2019-06-07T14:08:04.171Z,1.60
2019-06-07T14:10:34.592Z,1.53
2019-06-07T14:13:05.673Z,1.77
2019-06-07T14:15:36.102Z,1.60
2019-06-07T14:18:05.857Z,2.17
2019-06-07T14:20:36.202Z,2.10
2019-06-07T14:23:06.632Z,2.43
2019-06-07T14:25:37.123Z,1.50
2019-06-07T14:28:11.527Z,1.83
2019-06-07T14:30:38.935Z,2.00
2019-06-07T14:33:08.693Z,1.60
2019-06-07T14:35:39.027Z,1.60
2019-06-07T14:38:09.462Z,1.37
2019-06-07T14:40:39.848Z,1.50
2019-06-07T14:43:09.621Z,1.83
2019-06-07T14:45:39.911Z,1.70
2019-06-07T14:48:09.637Z,1.57
2019-06-07T14:50:40.026Z,1.53
2019-06-07T14:53:09.720Z,1.37
2019-06-07T14:55:40.115Z,1.10
2019-06-07T14:58:09.846Z,1.55
2019-06-07T15:00:46.050Z,1.50
2019-06-07T15:03:16.562Z,1.37
2019-06-07T15:05:46.406Z,1.43
2019-06-07T15:08:16.050Z,1.80
2019-06-07T15:10:45.721Z,1.73
2019-06-07T15:13:16.158Z,1.40
2019-06-07T15:15:45.865Z,1.47
2019-06-07T15:18:15.503Z,1.37
2019-06-07T15:20:45.802Z,1.67
2019-06-07T15:23:15.576Z,1.47
2019-06-07T15:25:45.198Z,1.47
2019-06-07T15:28:14.890Z,1.50
2019-06-07T15:30:44.647Z,1.30
2019-06-07T15:33:15.085Z,1.30
2019-06-07T15:35:44.899Z,1.53
2019-06-07T15:38:14.668Z,1.23
2019-06-07T15:40:45.008Z,1.40
2019-06-07T15:43:15.490Z,1.37
2019-06-07T15:45:45.359Z,1.23
2019-06-07T15:48:14.971Z,1.20
2019-06-07T15:50:45.242Z,1.40
2019-06-07T15:53:14.956Z,1.20
2019-06-07T15:55:45.887Z,1.33
2019-06-07T15:58:15.772Z,1.33
2019-06-07T16:00:49.158Z,1.33
2019-06-07T16:03:17.470Z,1.43
2019-06-07T16:05:47.770Z,1.20
2019-06-07T16:08:17.526Z,1.40
2019-06-07T16:10:47.149Z,1.47
2019-06-07T16:13:17.533Z,1.47
2019-06-07T16:15:47.344Z,1.50
2019-06-07T16:18:17.893Z,1.50
2019-06-07T16:20:48.261Z,1.40
2019-06-07T16:23:19.897Z,1.30
2019-06-07T16:25:50.335Z,1.70
2019-06-07T16:28:38.304Z,1.80
2019-06-07T16:31:28.975Z,1.40
2019-06-07T16:33:59.761Z,1.30
2019-06-07T16:36:31.181Z,1.60
2019-06-07T16:39:01.570Z,1.60
2019-06-07T16:41:32.085Z,1.50
2019-06-07T16:44:01.858Z,1.57
2019-06-07T16:46:32.296Z,1.50
2019-06-07T16:49:02.773Z,1.60
2019-06-07T16:51:33.251Z,2.10
2019-06-07T16:54:03.854Z,2.10
2019-06-07T16:56:35.387Z,2.00
2019-06-07T16:59:06.007Z,1.93
2019-06-07T17:01:37.198Z,1.67
2019-06-07T17:04:07.659Z,2.00
2019-06-07T17:06:37.636Z,2.73
2019-06-07T17:09:08.796Z,2.70
2019-06-07T17:11:42.282Z,1.63
2019-06-07T17:14:12.918Z,2.53
2019-06-07T17:16:44.427Z,1.90
2019-06-07T17:19:14.851Z,2.10
2019-06-07T17:21:45.406Z,1.87
2019-06-07T17:24:15.356Z,2.47
2019-06-07T17:26:46.119Z,2.37
2019-06-07T17:29:15.878Z,2.10
2019-06-07T17:31:46.453Z,1.83
2019-06-07T17:34:16.292Z,1.67
2019-06-07T17:36:46.447Z,2.10
2019-06-07T17:39:17.061Z,2.50
2019-06-07T17:41:54.841Z,2.17
2019-06-07T17:44:19.818Z,2.00
2019-06-07T17:46:51.547Z,2.57
2019-06-07T17:49:23.428Z,2.13
2019-06-07T17:51:53.860Z,1.73
2019-06-07T17:54:24.309Z,2.10
2019-06-07T17:56:54.738Z,2.27
2019-06-07T17:59:25.125Z,1.70
2019-06-07T18:02:13.444Z,2.20
2019-06-07T18:04:27.057Z,2.30
2019-06-07T18:06:57.110Z,2.53
2019-06-07T18:09:26.707Z,1.87
2019-06-07T18:11:56.338Z,1.97
2019-06-07T18:14:26.048Z,1.97
2019-06-07T18:16:55.716Z,2.00
2019-06-07T18:19:26.050Z,1.13
2019-06-07T18:21:59.038Z,1.30
2019-06-07T18:24:28.946Z,1.27
2019-06-07T18:26:58.939Z,0.90
2019-06-07T18:29:28.703Z,1.17
2019-06-07T18:32:00.365Z,1.33
2019-06-07T18:34:32.643Z,1.40
2019-06-07T18:37:02.379Z,0.77
2019-06-07T18:39:32.708Z,1.00
2019-06-07T18:42:03.223Z,1.67
2019-06-07T18:44:32.925Z,1.40
2019-06-07T18:47:02.714Z,1.27
2019-06-07T18:49:36.097Z,1.57
2019-06-07T18:52:30.331Z,1.40
2019-06-07T18:55:00.735Z,1.30
2019-06-07T18:57:30.571Z,1.40
2019-06-07T19:00:00.206Z,0.90
2019-06-07T19:02:29.832Z,1.50
2019-06-07T19:05:00.188Z,1.30
2019-06-07T19:07:30.001Z,1.13
2019-06-07T19:09:59.651Z,0.87
2019-06-07T19:12:29.305Z,0.90
2019-06-07T19:14:59.698Z,1.13
2019-06-07T19:17:29.478Z,1.30
2019-06-07T19:20:00.522Z,1.30
2019-06-07T19:22:31.062Z,1.00
2019-06-07T19:25:00.842Z,1.33
2019-06-07T19:27:32.831Z,1.07
2019-06-07T19:30:01.807Z,1.53
2019-06-07T19:32:32.115Z,1.30
2019-06-07T19:35:01.856Z,1.57
2019-06-07T19:37:31.502Z,1.57
2019-06-07T19:40:02.789Z,2.00
2019-06-07T19:42:33.416Z,1.97
2019-06-07T19:45:27.070Z,2.63
2019-06-07T19:47:35.151Z,3.37
2019-06-07T19:50:05.597Z,2.67
2019-06-07T19:52:35.894Z,3.87
2019-06-07T19:55:09.158Z,3.87
2019-06-07T19:57:37.204Z,3.07
2019-06-07T20:00:13.676Z,2.90
2019-06-07T20:02:39.378Z,2.10
2019-06-07T20:05:12.486Z,2.90
2019-06-07T20:07:43.002Z,2.50
2019-06-07T20:10:15.400Z,2.20
2019-06-07T20:12:45.819Z,2.13
2019-06-07T20:15:28.547Z,3.17
2019-06-07T20:17:49.017Z,2.37
2019-06-07T20:20:18.965Z,2.17
2019-06-07T20:22:49.265Z,2.33
2019-06-07T20:25:19.457Z,2.40
2019-06-07T20:27:49.748Z,2.07
2019-06-07T20:30:19.895Z,2.07
2019-06-07T20:32:49.502Z,1.90
2019-06-07T20:35:20.006Z,2.40
2019-06-07T20:37:49.727Z,2.60
2019-06-07T20:40:24.553Z,2.30
2019-06-07T20:42:51.528Z,3.30
2019-06-07T20:45:32.962Z,2.50
2019-06-07T20:47:53.617Z,3.40
2019-06-07T20:50:23.384Z,2.50
2019-06-07T20:52:53.015Z,2.97
2019-06-07T20:55:24.601Z,3.47
2019-06-07T20:57:54.967Z,2.43
2019-06-07T21:00:25.291Z,2.40
2019-06-07T21:02:55.676Z,3.73
2019-06-07T21:05:26.074Z,2.37
2019-06-07T21:07:56.990Z,4.23
2019-06-07T21:10:26.684Z,3.33
2019-06-07T21:12:56.977Z,3.80
2019-06-07T21:15:27.663Z,3.55
2019-06-07T21:17:58.155Z,4.03
2019-06-07T21:20:29.288Z,3.97
2019-06-07T21:23:00.686Z,3.87
2019-06-07T21:25:30.484Z,3.33
2019-06-07T21:28:00.937Z,4.13
2019-06-07T21:30:31.363Z,3.37
2019-06-07T21:33:01.752Z,4.60
2019-06-07T21:35:31.728Z,3.33
2019-06-07T21:38:01.946Z,4.03
2019-06-07T21:40:31.591Z,3.70
2019-06-07T21:43:02.074Z,4.07
2019-06-07T21:45:32.501Z,4.00
2019-06-07T21:48:03.768Z,4.57
2019-06-07T21:50:33.477Z,3.43
2019-06-07T21:53:04.526Z,3.50
2019-06-07T21:55:35.032Z,3.33
2019-06-07T21:58:05.391Z,3.80
2019-06-07T22:01:12.208Z,3.13
2019-06-07T22:03:42.680Z,3.87
2019-06-07T22:06:13.662Z,2.80
2019-06-07T22:08:43.773Z,2.90
2019-06-07T22:11:15.759Z,2.47
2019-06-07T22:13:46.116Z,2.03
2019-06-07T22:16:27.951Z,2.50
2019-06-07T22:18:47.683Z,2.67
2019-06-07T22:21:18.029Z,2.50
2019-06-07T22:23:48.433Z,2.30
2019-06-07T22:26:18.820Z,2.43
2019-06-07T22:28:49.207Z,2.70
2019-06-07T22:31:19.555Z,3.00
2019-06-07T22:33:49.980Z,3.00
2019-06-07T22:36:20.605Z,2.40
2019-06-07T22:38:50.233Z,2.27
2019-06-07T22:41:20.684Z,2.27
2019-06-07T22:43:50.295Z,2.13
2019-06-07T22:46:36.328Z,2.23
2019-06-07T22:48:53.295Z,2.33
2019-06-07T22:51:22.993Z,1.90
2019-06-07T22:53:52.603Z,1.87
2019-06-07T22:56:45.926Z,1.90
2019-06-07T22:59:18.859Z,2.13
2019-06-07T23:01:47.527Z,2.40
2019-06-07T23:04:19.315Z,2.13
2019-06-07T23:06:49.207Z,3.07
2019-06-07T23:09:19.843Z,3.33
2019-06-07T23:11:50.315Z,2.53
2019-06-07T23:14:21.404Z,1.77
2019-06-07T23:16:55.810Z,2.13
2019-06-07T23:19:23.099Z,1.93
2019-06-07T23:21:52.842Z,2.47
2019-06-07T23:24:22.428Z,3.13
2019-06-07T23:26:52.069Z,3.20
2019-06-07T23:29:21.666Z,2.93
2019-06-07T23:31:51.995Z,3.37
2019-06-07T23:34:21.671Z,3.50
2019-06-07T23:36:52.019Z,3.40
2019-06-07T23:39:22.573Z,2.67
2019-06-07T23:41:52.339Z,2.77
2019-06-07T23:44:22.642Z,2.17
2019-06-07T23:46:52.369Z,2.77
2019-06-07T23:49:22.667Z,2.80
2019-06-07T23:51:52.328Z,1.83
2019-06-07T23:54:22.605Z,2.27
2019-06-07T23:56:52.429Z,3.20
2019-06-07T23:59:23.762Z,4.23
